createdAt,value
2022-07-26T00:01:13.772Z,97962.38
2022-07-26T00:06:30.651Z,97963.69
2022-07-26T00:11:37.030Z,97965.38
2022-07-26T00:16:45.000Z,97969.53
2022-07-26T00:22:08.235Z,97971.19
2022-07-26T00:27:18.207Z,97971.66
2022-07-26T00:32:27.004Z,97991.66
2022-07-26T00:37:34.782Z,97995.66
2022-07-26T00:42:44.071Z,97990.69
2022-07-26T00:47:58.031Z,97995.31
2022-07-26T00:53:11.326Z,98002.47
2022-07-26T00:58:39.956Z,98004.34
2022-07-26T01:09:43.119Z,98010.38
2022-07-26T01:15:18.184Z,98024.16
2022-07-26T01:20:27.896Z,98038.72
2022-07-26T01:25:49.242Z,98027.53
2022-07-26T01:36:52.147Z,98005.91
2022-07-26T01:42:02.408Z,97995.84
2022-07-26T01:47:13.769Z,98005.88
2022-07-26T01:52:18.999Z,98011.09
2022-07-26T02:03:29.913Z,98000.94
2022-07-26T02:08:45.719Z,98000.00
2022-07-26T02:14:02.764Z,98002.72
2022-07-26T02:19:19.355Z,98002.78
2022-07-26T02:24:31.642Z,98002.84
2022-07-26T02:29:44.886Z,98014.25
2022-07-26T02:46:43.298Z,98011.53
2022-07-26T02:52:04.165Z,98012.81
2022-07-26T02:57:10.405Z,98016.03
2022-07-26T03:02:21.943Z,98024.50
2022-07-26T03:07:30.382Z,98015.06
2022-07-26T03:12:44.550Z,98015.50
2022-07-26T03:18:02.422Z,98013.81
2022-07-26T03:23:16.289Z,98012.16
2022-07-26T03:28:26.954Z,98016.16
2022-07-26T03:33:38.990Z,98012.22
2022-07-26T03:38:57.187Z,98010.34
2022-07-26T03:44:03.443Z,98008.25
2022-07-26T03:49:16.887Z,97997.19
2022-07-26T03:54:26.272Z,98001.19
2022-07-26T04:00:03.739Z,97990.94
2022-07-26T04:05:15.237Z,98000.59
2022-07-26T04:10:26.156Z,98005.44
2022-07-26T04:15:35.122Z,98013.63
2022-07-26T04:20:46.831Z,98005.44
2022-07-26T04:25:59.108Z,98010.91
2022-07-26T04:31:20.741Z,98019.50
2022-07-26T04:36:31.192Z,98027.66
2022-07-26T04:41:36.169Z,98026.41
2022-07-26T04:46:44.945Z,98030.03
2022-07-26T04:51:59.685Z,98033.78
2022-07-26T04:57:07.174Z,98032.53
2022-07-26T05:02:16.880Z,98033.97
2022-07-26T05:07:43.209Z,98046.31
2022-07-26T05:12:49.382Z,98042.28
2022-07-26T05:18:10.257Z,98043.47
2022-07-26T05:23:18.689Z,98040.66
2022-07-26T05:28:23.827Z,98030.81
2022-07-26T05:33:28.669Z,98049.53
2022-07-26T05:38:36.525Z,98053.97
2022-07-26T05:43:42.157Z,98059.03
2022-07-26T05:49:02.933Z,98051.16
2022-07-26T05:54:23.082Z,98060.19
2022-07-26T05:59:28.019Z,98069.00
2022-07-26T06:04:33.174Z,98065.91
2022-07-26T06:09:40.772Z,98074.53
2022-07-26T06:14:45.693Z,98063.44
2022-07-26T06:19:50.567Z,98075.75
2022-07-26T06:24:58.158Z,98070.88
2022-07-26T06:30:03.008Z,98080.63
2022-07-26T06:35:08.828Z,98080.47
2022-07-26T06:40:16.491Z,98090.66
2022-07-26T06:45:21.673Z,98077.63
2022-07-26T06:50:26.836Z,98084.41
2022-07-26T06:55:34.236Z,98082.94
2022-07-26T07:00:39.468Z,98089.72
2022-07-26T07:05:49.596Z,98091.28
2022-07-26T07:10:57.566Z,98089.72
2022-07-26T07:16:03.302Z,98082.56
2022-07-26T07:21:09.091Z,98089.63
2022-07-26T07:26:16.700Z,98090.78
2022-07-26T07:31:30.067Z,98091.34
2022-07-26T07:36:37.910Z,98092.91
2022-07-26T07:41:50.690Z,98091.91
2022-07-26T07:46:55.657Z,98095.63
2022-07-26T07:52:00.793Z,98088.19
2022-07-26T07:57:08.275Z,98072.69
2022-07-26T08:02:15.214Z,98071.38
2022-07-26T08:07:20.160Z,98069.63
2022-07-26T08:12:27.741Z,98065.13
2022-07-26T08:17:33.883Z,98070.72
2022-07-26T08:22:40.073Z,98074.88
2022-07-26T08:28:00.528Z,98070.56
2022-07-26T08:33:08.295Z,98078.16
2022-07-26T08:38:13.172Z,98082.00
2022-07-26T08:43:20.718Z,98071.81
2022-07-26T08:48:25.596Z,98073.94
2022-07-26T08:53:32.674Z,98080.38
2022-07-26T08:58:41.030Z,98081.50
2022-07-26T09:03:46.937Z,98089.94
2022-07-26T09:08:54.188Z,98102.78
2022-07-26T09:14:04.246Z,98097.69
2022-07-26T09:19:21.547Z,98091.31
2022-07-26T09:24:38.056Z,98086.16
2022-07-26T09:30:02.940Z,98098.03
2022-07-26T09:35:45.956Z,98107.53
2022-07-26T09:40:46.765Z,98089.38
2022-07-26T09:46:07.927Z,98097.13
2022-07-26T09:51:17.049Z,98107.38
2022-07-26T09:56:27.440Z,98087.28
2022-07-26T10:01:34.579Z,98106.13
2022-07-26T10:06:43.651Z,98097.00
2022-07-26T10:11:56.107Z,98107.41
2022-07-26T10:17:01.389Z,98104.22
2022-07-26T10:22:30.802Z,98114.69
2022-07-26T10:27:45.768Z,98100.53
2022-07-26T10:33:02.035Z,98108.44
2022-07-26T10:38:11.808Z,98110.28
2022-07-26T10:48:59.496Z,98116.06
2022-07-26T10:54:10.665Z,98111.19
2022-07-26T10:59:27.941Z,98126.91
2022-07-26T11:04:40.816Z,98109.47
2022-07-26T11:09:48.339Z,98114.22
2022-07-26T11:14:54.362Z,98135.97
2022-07-26T11:20:00.816Z,98135.47
2022-07-26T11:25:09.398Z,98127.09
2022-07-26T11:30:15.949Z,98127.09
2022-07-26T11:35:20.955Z,98134.31
2022-07-26T11:40:49.229Z,98128.47
2022-07-26T11:45:55.271Z,98122.25
2022-07-26T11:51:12.094Z,98119.00
2022-07-26T11:56:24.125Z,98132.25
2022-07-26T12:01:30.299Z,98147.25
2022-07-26T12:06:41.774Z,98125.34
2022-07-26T12:11:49.373Z,98137.31
2022-07-26T12:16:54.344Z,98131.16
2022-07-26T12:22:02.069Z,98141.13
2022-07-26T12:27:19.758Z,98114.97
2022-07-26T12:32:26.222Z,98121.56
2022-07-26T12:37:40.053Z,98135.16
2022-07-26T12:43:01.163Z,98131.25
2022-07-26T12:48:12.096Z,98138.31
2022-07-26T12:53:16.952Z,98143.97
2022-07-26T12:58:24.393Z,98133.41
2022-07-26T13:03:29.215Z,98142.81
2022-07-26T13:08:34.079Z,98133.47
2022-07-26T13:13:42.061Z,98162.66
2022-07-26T13:18:46.934Z,98154.81
2022-07-26T13:23:51.777Z,98162.53
2022-07-26T13:29:01.295Z,98161.91
2022-07-26T13:34:06.219Z,98150.56
2022-07-26T13:39:11.194Z,98153.88
2022-07-26T13:44:19.015Z,98155.44
2022-07-26T13:49:23.863Z,98149.91
2022-07-26T13:54:30.989Z,98152.06
2022-07-26T13:59:38.512Z,98156.50
2022-07-26T14:04:43.392Z,98159.88
2022-07-26T14:09:48.238Z,98164.53
2022-07-26T14:14:55.682Z,98168.44
2022-07-26T14:20:00.591Z,98184.72
2022-07-26T14:25:06.152Z,98170.19
2022-07-26T14:30:15.045Z,98177.50
2022-07-26T14:35:20.665Z,98176.41
2022-07-26T14:40:25.616Z,98173.91
2022-07-26T14:45:34.571Z,98175.63
2022-07-26T14:51:07.159Z,98173.75
2022-07-26T14:56:04.380Z,98171.63
2022-07-26T15:01:11.924Z,98165.94
2022-07-26T15:06:16.939Z,98168.38
2022-07-26T15:11:21.768Z,98173.75
2022-07-26T15:16:29.315Z,98167.41
2022-07-26T15:21:34.441Z,98184.81
2022-07-26T15:26:39.264Z,98175.84
2022-07-26T15:31:46.832Z,98175.09
2022-07-26T15:36:51.988Z,98167.88
2022-07-26T15:41:56.941Z,98177.78
2022-07-26T15:47:06.339Z,98183.56
2022-07-26T15:52:13.693Z,98197.00
2022-07-26T15:57:19.386Z,98184.09
2022-07-26T16:02:27.628Z,98177.09
2022-07-26T16:07:32.700Z,98176.50
2022-07-26T16:12:37.582Z,98192.38
2022-07-26T16:17:45.152Z,98184.72
2022-07-26T16:22:50.610Z,98193.78
2022-07-26T16:27:55.539Z,98186.81
2022-07-26T16:33:03.152Z,98189.78
2022-07-26T16:38:08.146Z,98185.78
2022-07-26T16:43:13.215Z,98195.38
2022-07-26T16:48:20.673Z,98193.03
2022-07-26T16:53:25.597Z,98192.72
2022-07-26T16:58:30.512Z,98206.22
2022-07-26T17:03:38.101Z,98199.88
2022-07-26T17:08:43.488Z,98202.75
2022-07-26T17:13:49.011Z,98200.75
2022-07-26T17:18:57.137Z,98206.75
2022-07-26T17:24:05.660Z,98206.72
2022-07-26T17:29:12.293Z,98202.53
2022-07-26T17:34:20.417Z,98221.94
2022-07-26T17:39:25.375Z,98227.88
2022-07-26T17:44:50.309Z,98222.63
2022-07-26T17:50:09.012Z,98224.69
2022-07-26T17:55:21.295Z,98221.31
2022-07-26T18:00:28.814Z,98237.53
2022-07-26T18:05:41.088Z,98238.38
2022-07-26T18:10:50.828Z,98238.09
2022-07-26T18:15:56.730Z,98243.31
2022-07-26T18:21:04.584Z,98244.03
2022-07-26T18:26:09.586Z,98239.84
2022-07-26T18:31:14.944Z,98234.03
2022-07-26T18:36:23.081Z,98241.13
2022-07-26T18:41:28.869Z,98243.25
2022-07-26T18:46:34.843Z,98241.91
2022-07-26T18:51:43.285Z,98235.94
2022-07-26T18:56:48.494Z,98243.41
2022-07-26T19:01:55.881Z,98239.50
2022-07-26T19:07:03.708Z,98252.84
2022-07-26T19:12:09.492Z,98257.69
2022-07-26T19:17:14.592Z,98263.63
2022-07-26T19:22:22.553Z,98266.81
2022-07-26T19:27:28.291Z,98278.06
2022-07-26T19:32:36.186Z,98288.97
2022-07-26T19:37:44.053Z,98307.88
2022-07-26T19:42:49.299Z,98308.50
2022-07-26T19:47:58.603Z,98314.41
2022-07-26T19:53:06.530Z,98327.78
2022-07-26T19:58:11.731Z,98330.25
2022-07-26T20:03:16.954Z,98350.09
2022-07-26T20:08:24.932Z,98339.44
2022-07-26T20:13:30.174Z,98346.81
2022-07-26T20:18:35.086Z,98351.72
2022-07-26T20:23:43.183Z,98349.41
2022-07-26T20:28:49.361Z,98360.59
2022-07-26T20:33:55.682Z,98368.44
2022-07-26T20:39:03.937Z,98370.34
2022-07-26T20:44:08.789Z,98371.84
2022-07-26T20:49:14.890Z,98381.91
2022-07-26T20:54:23.725Z,98380.03
2022-07-26T20:59:28.983Z,98374.78
2022-07-26T21:04:34.213Z,98374.56
2022-07-26T21:09:42.166Z,98371.22
2022-07-26T21:14:47.399Z,98387.25
2022-07-26T21:19:52.547Z,98387.03
2022-07-26T21:25:15.783Z,98389.75
2022-07-26T21:30:21.110Z,98400.50
2022-07-26T21:35:26.490Z,98399.22
2022-07-26T21:40:34.104Z,98400.91
2022-07-26T21:45:40.380Z,98401.78
2022-07-26T21:50:45.622Z,98397.78
2022-07-26T21:55:53.225Z,98404.91
2022-07-26T22:01:06.579Z,98413.06
2022-07-26T22:06:13.741Z,98421.66
2022-07-26T22:11:23.318Z,98431.06
2022-07-26T22:16:28.698Z,98431.50
2022-07-26T22:21:33.720Z,98430.22
2022-07-26T22:26:42.336Z,98419.31
2022-07-26T22:31:47.209Z,98420.38
2022-07-26T22:36:52.258Z,98423.06
2022-07-26T22:42:14.935Z,98434.38
2022-07-26T22:47:20.882Z,98435.63
2022-07-26T22:52:26.672Z,98441.09
2022-07-26T22:57:34.510Z,98433.94
2022-07-26T23:02:40.042Z,98425.75
2022-07-26T23:07:47.852Z,98420.09
2022-07-26T23:12:58.038Z,98415.06
2022-07-26T23:18:02.872Z,98412.97
2022-07-26T23:23:07.886Z,98416.72
2022-07-26T23:28:24.895Z,98417.16
2022-07-26T23:33:51.893Z,98423.44
2022-07-26T23:39:00.706Z,98426.38
2022-07-26T23:44:08.900Z,98430.09
2022-07-26T23:49:14.240Z,98433.91
2022-07-26T23:54:19.920Z,98442.66
2022-07-26T23:59:27.437Z,98437.38
